sensor_id;sensor_type;location;lat;lon;timestamp;temperature;humidity
21047;DHT22;10682;50.874;3.656;2022-09-09T00:16:00;14.80;99.90
21047;DHT22;10682;50.874;3.656;2022-09-09T00:24:49;14.90;99.90
21047;DHT22;10682;50.874;3.656;2022-09-09T00:27:54;14.90;99.90
21047;DHT22;10682;50.874;3.656;2022-09-09T00:30:28;14.90;99.90
21047;DHT22;10682;50.874;3.656;2022-09-09T00:33:01;14.90;99.90
21047;DHT22;10682;50.874;3.656;2022-09-09T00:35:46;15.00;99.90
21047;DHT22;10682;50.874;3.656;2022-09-09T00:38:37;14.90;99.90
21047;DHT22;10682;50.874;3.656;2022-09-09T00:41:14;15.00;99.90
21047;DHT22;10682;50.874;3.656;2022-09-09T00:43:51;15.00;99.90
21047;DHT22;10682;50.874;3.656;2022-09-09T00:52:21;14.90;99.90
21047;DHT22;10682;50.874;3.656;2022-09-09T00:58:06;14.90;99.90
21047;DHT22;10682;50.874;3.656;2022-09-09T01:00:50;14.90;99.90
21047;DHT22;10682;50.874;3.656;2022-09-09T01:14:47;15.00;99.90
21047;DHT22;10682;50.874;3.656;2022-09-09T01:17:28;15.00;99.90
21047;DHT22;10682;50.874;3.656;2022-09-09T01:20:19;15.00;99.90
21047;DHT22;10682;50.874;3.656;2022-09-09T01:23:14;15.10;99.90
21047;DHT22;10682;50.874;3.656;2022-09-09T01:26:24;15.00;99.90
21047;DHT22;10682;50.874;3.656;2022-09-09T01:28:53;15.00;99.90
21047;DHT22;10682;50.874;3.656;2022-09-09T01:31:42;15.00;99.90
21047;DHT22;10682;50.874;3.656;2022-09-09T01:34:19;15.10;99.90
21047;DHT22;10682;50.874;3.656;2022-09-09T01:36:57;15.10;99.90
21047;DHT22;10682;50.874;3.656;2022-09-09T01:39:26;15.10;99.90
21047;DHT22;10682;50.874;3.656;2022-09-09T01:41:53;15.10;99.90
21047;DHT22;10682;50.874;3.656;2022-09-09T01:44:21;15.10;99.90
21047;DHT22;10682;50.874;3.656;2022-09-09T01:46:48;15.10;99.90
21047;DHT22;10682;50.874;3.656;2022-09-09T01:49:16;15.10;99.90
21047;DHT22;10682;50.874;3.656;2022-09-09T01:51:48;15.10;99.90
21047;DHT22;10682;50.874;3.656;2022-09-09T01:54:17;15.20;99.90
21047;DHT22;10682;50.874;3.656;2022-09-09T01:57:39;15.20;99.90
21047;DHT22;10682;50.874;3.656;2022-09-09T02:00:08;15.20;99.90
21047;DHT22;10682;50.874;3.656;2022-09-09T02:09:03;15.20;99.90
21047;DHT22;10682;50.874;3.656;2022-09-09T02:11:32;15.20;99.90
21047;DHT22;10682;50.874;3.656;2022-09-09T02:14:13;15.20;99.90
21047;DHT22;10682;50.874;3.656;2022-09-09T02:16:52;15.20;99.90
21047;DHT22;10682;50.874;3.656;2022-09-09T02:19:27;15.30;99.90
21047;DHT22;10682;50.874;3.656;2022-09-09T02:21:59;15.30;99.90
21047;DHT22;10682;50.874;3.656;2022-09-09T02:24:30;15.30;99.90
21047;DHT22;10682;50.874;3.656;2022-09-09T02:27:04;15.40;99.90
21047;DHT22;10682;50.874;3.656;2022-09-09T02:29:41;15.40;99.90
21047;DHT22;10682;50.874;3.656;2022-09-09T02:32:12;15.40;99.90
21047;DHT22;10682;50.874;3.656;2022-09-09T02:34:47;15.40;99.90
21047;DHT22;10682;50.874;3.656;2022-09-09T02:37:23;15.40;99.90
21047;DHT22;10682;50.874;3.656;2022-09-09T02:39:58;15.50;99.90
21047;DHT22;10682;50.874;3.656;2022-09-09T02:42:25;15.50;99.90
21047;DHT22;10682;50.874;3.656;2022-09-09T02:44:52;15.50;99.90
21047;DHT22;10682;50.874;3.656;2022-09-09T02:50:08;15.60;99.90
21047;DHT22;10682;50.874;3.656;2022-09-09T02:53:07;15.70;99.90
21047;DHT22;10682;50.874;3.656;2022-09-09T02:55:54;15.60;99.90
21047;DHT22;10682;50.874;3.656;2022-09-09T02:58:25;15.60;99.90
21047;DHT22;10682;50.874;3.656;2022-09-09T03:00:52;15.60;99.90
21047;DHT22;10682;50.874;3.656;2022-09-09T03:03:20;15.60;99.90
21047;DHT22;10682;50.874;3.656;2022-09-09T03:05:48;15.50;99.90
21047;DHT22;10682;50.874;3.656;2022-09-09T03:08:16;15.50;99.90
21047;DHT22;10682;50.874;3.656;2022-09-09T03:10:43;15.50;99.90
21047;DHT22;10682;50.874;3.656;2022-09-09T03:13:10;15.50;99.90
21047;DHT22;10682;50.874;3.656;2022-09-09T03:15:39;15.50;99.90
21047;DHT22;10682;50.874;3.656;2022-09-09T03:18:06;15.50;99.90
21047;DHT22;10682;50.874;3.656;2022-09-09T03:20:33;15.50;99.90
21047;DHT22;10682;50.874;3.656;2022-09-09T03:23:00;15.50;99.90
21047;DHT22;10682;50.874;3.656;2022-09-09T03:25:27;15.50;99.90
21047;DHT22;10682;50.874;3.656;2022-09-09T03:27:55;15.50;99.90
21047;DHT22;10682;50.874;3.656;2022-09-09T03:30:23;15.40;99.90
21047;DHT22;10682;50.874;3.656;2022-09-09T03:32:51;15.50;99.90
21047;DHT22;10682;50.874;3.656;2022-09-09T03:35:18;15.50;99.90
21047;DHT22;10682;50.874;3.656;2022-09-09T03:37:46;15.50;99.90
21047;DHT22;10682;50.874;3.656;2022-09-09T03:40:14;15.50;99.90
21047;DHT22;10682;50.874;3.656;2022-09-09T03:42:41;15.50;99.90
21047;DHT22;10682;50.874;3.656;2022-09-09T03:45:11;15.50;99.90
21047;DHT22;10682;50.874;3.656;2022-09-09T03:47:38;15.50;99.90
21047;DHT22;10682;50.874;3.656;2022-09-09T03:50:06;15.50;99.90
21047;DHT22;10682;50.874;3.656;2022-09-09T03:52:40;15.50;99.90
21047;DHT22;10682;50.874;3.656;2022-09-09T03:55:08;15.50;99.90
21047;DHT22;10682;50.874;3.656;2022-09-09T03:57:36;15.50;99.90
21047;DHT22;10682;50.874;3.656;2022-09-09T04:00:05;15.50;99.90
21047;DHT22;10682;50.874;3.656;2022-09-09T04:02:33;15.50;99.90
21047;DHT22;10682;50.874;3.656;2022-09-09T04:05:02;15.50;99.90
21047;DHT22;10682;50.874;3.656;2022-09-09T04:07:29;15.50;99.90
21047;DHT22;10682;50.874;3.656;2022-09-09T04:09:56;15.50;99.90
21047;DHT22;10682;50.874;3.656;2022-09-09T04:12:23;15.50;99.90
21047;DHT22;10682;50.874;3.656;2022-09-09T04:14:50;15.50;99.90
21047;DHT22;10682;50.874;3.656;2022-09-09T04:17:17;15.50;99.90
21047;DHT22;10682;50.874;3.656;2022-09-09T04:19:44;15.60;99.90
21047;DHT22;10682;50.874;3.656;2022-09-09T04:22:11;15.50;99.90
21047;DHT22;10682;50.874;3.656;2022-09-09T04:24:38;15.50;99.90
21047;DHT22;10682;50.874;3.656;2022-09-09T04:27:05;15.60;99.90
21047;DHT22;10682;50.874;3.656;2022-09-09T04:29:32;15.60;99.90
21047;DHT22;10682;50.874;3.656;2022-09-09T04:32:00;15.60;99.90
21047;DHT22;10682;50.874;3.656;2022-09-09T04:34:27;15.60;99.90
21047;DHT22;10682;50.874;3.656;2022-09-09T04:36:54;15.60;99.90
21047;DHT22;10682;50.874;3.656;2022-09-09T04:39:22;15.60;99.90
21047;DHT22;10682;50.874;3.656;2022-09-09T04:41:49;15.50;99.90
21047;DHT22;10682;50.874;3.656;2022-09-09T04:44:16;15.50;99.90
21047;DHT22;10682;50.874;3.656;2022-09-09T04:46:43;15.50;99.90
21047;DHT22;10682;50.874;3.656;2022-09-09T04:49:11;15.50;99.90
21047;DHT22;10682;50.874;3.656;2022-09-09T04:51:40;15.40;99.90
21047;DHT22;10682;50.874;3.656;2022-09-09T04:54:07;15.40;99.90
21047;DHT22;10682;50.874;3.656;2022-09-09T04:56:34;15.50;99.90
21047;DHT22;10682;50.874;3.656;2022-09-09T04:59:02;15.50;99.90
21047;DHT22;10682;50.874;3.656;2022-09-09T05:01:29;15.50;99.90
21047;DHT22;10682;50.874;3.656;2022-09-09T05:03:59;15.50;99.90
21047;DHT22;10682;50.874;3.656;2022-09-09T05:06:26;15.50;99.90
21047;DHT22;10682;50.874;3.656;2022-09-09T05:08:53;15.50;99.90
21047;DHT22;10682;50.874;3.656;2022-09-09T05:11:25;15.50;99.90
21047;DHT22;10682;50.874;3.656;2022-09-09T05:13:53;15.50;99.90
21047;DHT22;10682;50.874;3.656;2022-09-09T05:16:21;15.50;99.90
21047;DHT22;10682;50.874;3.656;2022-09-09T05:18:49;15.50;99.90
21047;DHT22;10682;50.874;3.656;2022-09-09T05:21:19;15.50;99.90
21047;DHT22;10682;50.874;3.656;2022-09-09T05:23:47;15.50;99.90
21047;DHT22;10682;50.874;3.656;2022-09-09T05:26:19;15.50;99.90
21047;DHT22;10682;50.874;3.656;2022-09-09T05:28:47;15.60;99.90
21047;DHT22;10682;50.874;3.656;2022-09-09T05:31:15;15.50;99.90
21047;DHT22;10682;50.874;3.656;2022-09-09T05:33:44;15.50;99.90
21047;DHT22;10682;50.874;3.656;2022-09-09T05:36:15;15.50;99.90
21047;DHT22;10682;50.874;3.656;2022-09-09T05:38:44;15.50;99.90
21047;DHT22;10682;50.874;3.656;2022-09-09T05:41:12;15.50;99.90
21047;DHT22;10682;50.874;3.656;2022-09-09T05:43:43;15.50;99.90
21047;DHT22;10682;50.874;3.656;2022-09-09T05:46:13;15.50;99.90
21047;DHT22;10682;50.874;3.656;2022-09-09T05:48:43;15.50;99.90
21047;DHT22;10682;50.874;3.656;2022-09-09T05:51:20;15.50;99.90
21047;DHT22;10682;50.874;3.656;2022-09-09T05:53:51;15.50;99.90
21047;DHT22;10682;50.874;3.656;2022-09-09T05:56:23;15.50;99.90
21047;DHT22;10682;50.874;3.656;2022-09-09T05:58:52;15.50;99.90
21047;DHT22;10682;50.874;3.656;2022-09-09T06:01:25;15.50;99.90
21047;DHT22;10682;50.874;3.656;2022-09-09T06:03:57;15.50;99.90
21047;DHT22;10682;50.874;3.656;2022-09-09T06:06:26;15.50;99.90
21047;DHT22;10682;50.874;3.656;2022-09-09T06:08:57;15.50;99.90
21047;DHT22;10682;50.874;3.656;2022-09-09T06:11:29;15.40;99.90
21047;DHT22;10682;50.874;3.656;2022-09-09T06:14:00;15.40;99.90
21047;DHT22;10682;50.874;3.656;2022-09-09T06:16:28;15.40;99.90
21047;DHT22;10682;50.874;3.656;2022-09-09T06:18:56;15.40;99.90
21047;DHT22;10682;50.874;3.656;2022-09-09T06:21:32;15.40;99.90
21047;DHT22;10682;50.874;3.656;2022-09-09T06:24:01;15.40;99.90
21047;DHT22;10682;50.874;3.656;2022-09-09T06:26:33;15.40;99.90
21047;DHT22;10682;50.874;3.656;2022-09-09T06:29:02;15.50;99.90
21047;DHT22;10682;50.874;3.656;2022-09-09T06:31:32;15.50;99.90
21047;DHT22;10682;50.874;3.656;2022-09-09T06:34:01;15.60;99.90
21047;DHT22;10682;50.874;3.656;2022-09-09T06:36:32;15.60;99.90
21047;DHT22;10682;50.874;3.656;2022-09-09T06:39:01;15.60;99.90
21047;DHT22;10682;50.874;3.656;2022-09-09T06:41:30;15.70;99.90
21047;DHT22;10682;50.874;3.656;2022-09-09T06:43:57;15.70;99.90
21047;DHT22;10682;50.874;3.656;2022-09-09T06:46:26;15.70;99.90
21047;DHT22;10682;50.874;3.656;2022-09-09T06:48:56;15.70;99.90
21047;DHT22;10682;50.874;3.656;2022-09-09T06:51:35;15.70;99.90
21047;DHT22;10682;50.874;3.656;2022-09-09T06:54:04;15.70;99.90
21047;DHT22;10682;50.874;3.656;2022-09-09T06:56:33;15.70;99.90
21047;DHT22;10682;50.874;3.656;2022-09-09T06:59:03;15.70;99.90
21047;DHT22;10682;50.874;3.656;2022-09-09T07:01:33;15.60;99.90
21047;DHT22;10682;50.874;3.656;2022-09-09T07:04:05;15.60;99.90
21047;DHT22;10682;50.874;3.656;2022-09-09T07:06:36;15.60;99.90
21047;DHT22;10682;50.874;3.656;2022-09-09T07:09:10;15.60;99.90
21047;DHT22;10682;50.874;3.656;2022-09-09T07:11:47;15.70;99.90
21047;DHT22;10682;50.874;3.656;2022-09-09T07:14:16;15.80;99.90
21047;DHT22;10682;50.874;3.656;2022-09-09T07:16:44;15.80;99.90
21047;DHT22;10682;50.874;3.656;2022-09-09T07:19:12;15.90;99.90
21047;DHT22;10682;50.874;3.656;2022-09-09T07:21:40;16.00;99.90
21047;DHT22;10682;50.874;3.656;2022-09-09T07:24:08;16.20;99.90
21047;DHT22;10682;50.874;3.656;2022-09-09T07:26:38;16.30;99.90
21047;DHT22;10682;50.874;3.656;2022-09-09T07:29:06;16.30;99.90
21047;DHT22;10682;50.874;3.656;2022-09-09T07:31:36;16.20;99.90
21047;DHT22;10682;50.874;3.656;2022-09-09T07:34:04;16.10;99.90
21047;DHT22;10682;50.874;3.656;2022-09-09T07:36:34;16.00;99.90
21047;DHT22;10682;50.874;3.656;2022-09-09T07:39:07;16.00;99.90
21047;DHT22;10682;50.874;3.656;2022-09-09T07:41:40;16.00;99.90
21047;DHT22;10682;50.874;3.656;2022-09-09T07:44:16;15.90;99.90
21047;DHT22;10682;50.874;3.656;2022-09-09T07:46:45;15.90;99.90
21047;DHT22;10682;50.874;3.656;2022-09-09T07:49:12;15.90;99.90
21047;DHT22;10682;50.874;3.656;2022-09-09T07:51:41;15.90;99.90
21047;DHT22;10682;50.874;3.656;2022-09-09T07:54:11;15.80;99.90
21047;DHT22;10682;50.874;3.656;2022-09-09T07:56:40;15.80;99.90
21047;DHT22;10682;50.874;3.656;2022-09-09T07:59:08;15.80;99.90
21047;DHT22;10682;50.874;3.656;2022-09-09T08:01:40;15.80;99.90
21047;DHT22;10682;50.874;3.656;2022-09-09T08:04:16;15.80;99.90
21047;DHT22;10682;50.874;3.656;2022-09-09T08:09:14;15.80;99.90
21047;DHT22;10682;50.874;3.656;2022-09-09T08:11:42;15.90;99.90
21047;DHT22;10682;50.874;3.656;2022-09-09T08:14:10;15.90;99.90
21047;DHT22;10682;50.874;3.656;2022-09-09T08:16:41;15.90;99.90
21047;DHT22;10682;50.874;3.656;2022-09-09T08:19:09;15.90;99.90
21047;DHT22;10682;50.874;3.656;2022-09-09T08:21:38;15.90;99.90
21047;DHT22;10682;50.874;3.656;2022-09-09T08:24:07;15.90;99.90
21047;DHT22;10682;50.874;3.656;2022-09-09T08:26:37;16.00;99.90
21047;DHT22;10682;50.874;3.656;2022-09-09T08:29:07;16.10;99.90
21047;DHT22;10682;50.874;3.656;2022-09-09T08:31:37;16.20;99.90
21047;DHT22;10682;50.874;3.656;2022-09-09T08:34:09;16.20;99.90
21047;DHT22;10682;50.874;3.656;2022-09-09T08:36:39;16.20;99.90
21047;DHT22;10682;50.874;3.656;2022-09-09T08:39:10;16.30;99.90
21047;DHT22;10682;50.874;3.656;2022-09-09T08:50:25;16.40;99.90
21047;DHT22;10682;50.874;3.656;2022-09-09T08:58:33;16.40;99.90
21047;DHT22;10682;50.874;3.656;2022-09-09T09:19:05;16.50;99.90
21047;DHT22;10682;50.874;3.656;2022-09-09T09:21:41;16.60;99.90
21047;DHT22;10682;50.874;3.656;2022-09-09T09:24:41;16.60;99.90
21047;DHT22;10682;50.874;3.656;2022-09-09T09:27:27;16.80;99.90
21047;DHT22;10682;50.874;3.656;2022-09-09T09:35:22;17.30;99.90
21047;DHT22;10682;50.874;3.656;2022-09-09T09:37:49;17.40;99.90
21047;DHT22;10682;50.874;3.656;2022-09-09T09:40:37;17.50;99.90
21047;DHT22;10682;50.874;3.656;2022-09-09T09:43:21;17.70;99.90
21047;DHT22;10682;50.874;3.656;2022-09-09T09:45:51;17.70;99.90
21047;DHT22;10682;50.874;3.656;2022-09-09T09:48:38;17.70;99.90
21047;DHT22;10682;50.874;3.656;2022-09-09T09:51:10;17.60;99.90
21047;DHT22;10682;50.874;3.656;2022-09-09T09:53:42;17.50;99.90
21047;DHT22;10682;50.874;3.656;2022-09-09T09:56:13;17.40;99.90
21047;DHT22;10682;50.874;3.656;2022-09-09T10:01:28;17.30;99.90
21047;DHT22;10682;50.874;3.656;2022-09-09T10:03:59;17.30;99.90
21047;DHT22;10682;50.874;3.656;2022-09-09T10:06:37;17.40;99.90
21047;DHT22;10682;50.874;3.656;2022-09-09T10:09:27;17.50;99.90
21047;DHT22;10682;50.874;3.656;2022-09-09T10:12:20;17.60;99.90
21047;DHT22;10682;50.874;3.656;2022-09-09T10:30:04;17.40;99.90
21047;DHT22;10682;50.874;3.656;2022-09-09T10:35:33;17.60;99.90
21047;DHT22;10682;50.874;3.656;2022-09-09T10:38:29;17.80;99.90
21047;DHT22;10682;50.874;3.656;2022-09-09T10:53:46;18.50;99.90
21047;DHT22;10682;50.874;3.656;2022-09-09T10:56:04;18.30;99.90
21047;DHT22;10682;50.874;3.656;2022-09-09T10:58:58;18.20;99.90
21047;DHT22;10682;50.874;3.656;2022-09-09T11:01:49;18.10;99.90
21047;DHT22;10682;50.874;3.656;2022-09-09T11:04:40;18.00;99.90
21047;DHT22;10682;50.874;3.656;2022-09-09T11:07:14;18.00;99.90
21047;DHT22;10682;50.874;3.656;2022-09-09T11:09:53;18.00;99.90
21047;DHT22;10682;50.874;3.656;2022-09-09T11:12:24;18.10;99.90
21047;DHT22;10682;50.874;3.656;2022-09-09T11:15:06;18.30;99.90
21047;DHT22;10682;50.874;3.656;2022-09-09T11:17:49;18.60;99.90
21047;DHT22;10682;50.874;3.656;2022-09-09T11:20:19;18.80;99.90
21047;DHT22;10682;50.874;3.656;2022-09-09T11:23:32;19.20;99.90
21047;DHT22;10682;50.874;3.656;2022-09-09T11:26:13;19.20;99.90
21047;DHT22;10682;50.874;3.656;2022-09-09T11:29:27;19.10;99.90
21047;DHT22;10682;50.874;3.656;2022-09-09T11:35:46;19.30;99.90
21047;DHT22;10682;50.874;3.656;2022-09-09T11:38:46;19.20;99.90
21047;DHT22;10682;50.874;3.656;2022-09-09T11:41:21;19.20;99.90
21047;DHT22;10682;50.874;3.656;2022-09-09T11:43:52;19.10;99.90
21047;DHT22;10682;50.874;3.656;2022-09-09T11:46:22;19.10;99.90
21047;DHT22;10682;50.874;3.656;2022-09-09T11:49:02;19.10;99.90
21047;DHT22;10682;50.874;3.656;2022-09-09T11:51:32;19.20;99.90
21047;DHT22;10682;50.874;3.656;2022-09-09T11:56:57;19.20;99.90
21047;DHT22;10682;50.874;3.656;2022-09-09T11:59:31;19.30;99.90
21047;DHT22;10682;50.874;3.656;2022-09-09T12:02:00;19.40;99.90
21047;DHT22;10682;50.874;3.656;2022-09-09T12:04:46;19.70;99.90
21047;DHT22;10682;50.874;3.656;2022-09-09T12:10:30;19.60;99.90
21047;DHT22;10682;50.874;3.656;2022-09-09T12:13:16;19.40;99.90
21047;DHT22;10682;50.874;3.656;2022-09-09T12:15:54;19.40;99.90
21047;DHT22;10682;50.874;3.656;2022-09-09T12:18:38;19.20;99.90
21047;DHT22;10682;50.874;3.656;2022-09-09T12:22:14;19.10;99.90
21047;DHT22;10682;50.874;3.656;2022-09-09T12:27:31;19.00;99.90
21047;DHT22;10682;50.874;3.656;2022-09-09T12:30:24;19.00;99.90
21047;DHT22;10682;50.874;3.656;2022-09-09T12:33:10;19.10;99.90
21047;DHT22;10682;50.874;3.656;2022-09-09T12:35:42;19.10;99.90
21047;DHT22;10682;50.874;3.656;2022-09-09T12:38:25;19.20;99.90
21047;DHT22;10682;50.874;3.656;2022-09-09T12:40:57;19.40;99.90
21047;DHT22;10682;50.874;3.656;2022-09-09T12:43:26;19.50;99.90
21047;DHT22;10682;50.874;3.656;2022-09-09T12:46:07;19.60;99.90
21047;DHT22;10682;50.874;3.656;2022-09-09T12:48:41;19.60;99.90
21047;DHT22;10682;50.874;3.656;2022-09-09T12:51:23;19.70;99.90
21047;DHT22;10682;50.874;3.656;2022-09-09T12:53:52;19.60;99.90
21047;DHT22;10682;50.874;3.656;2022-09-09T12:56:21;19.80;99.90
21047;DHT22;10682;50.874;3.656;2022-09-09T12:58:51;19.80;99.90
21047;DHT22;10682;50.874;3.656;2022-09-09T13:01:30;19.80;99.90
21047;DHT22;10682;50.874;3.656;2022-09-09T13:04:00;19.80;99.90
21047;DHT22;10682;50.874;3.656;2022-09-09T13:06:31;19.80;99.90
21047;DHT22;10682;50.874;3.656;2022-09-09T13:09:00;19.80;99.90
21047;DHT22;10682;50.874;3.656;2022-09-09T13:11:38;19.70;99.90
21047;DHT22;10682;50.874;3.656;2022-09-09T13:14:32;19.70;99.90
21047;DHT22;10682;50.874;3.656;2022-09-09T13:17:14;19.80;99.90
21047;DHT22;10682;50.874;3.656;2022-09-09T13:19:45;19.90;99.90
21047;DHT22;10682;50.874;3.656;2022-09-09T13:22:20;19.90;99.90
21047;DHT22;10682;50.874;3.656;2022-09-09T13:25:23;20.10;99.90
21047;DHT22;10682;50.874;3.656;2022-09-09T13:28:05;20.30;99.90
21047;DHT22;10682;50.874;3.656;2022-09-09T13:30:37;20.00;99.90
21047;DHT22;10682;50.874;3.656;2022-09-09T13:36:26;20.10;99.90
21047;DHT22;10682;50.874;3.656;2022-09-09T13:38:56;20.20;99.90
21047;DHT22;10682;50.874;3.656;2022-09-09T13:41:31;20.40;99.90
21047;DHT22;10682;50.874;3.656;2022-09-09T13:44:01;20.60;99.90
21047;DHT22;10682;50.874;3.656;2022-09-09T13:51:38;20.40;99.90
21047;DHT22;10682;50.874;3.656;2022-09-09T13:54:14;20.40;99.90
21047;DHT22;10682;50.874;3.656;2022-09-09T13:56:43;20.50;99.90
21047;DHT22;10682;50.874;3.656;2022-09-09T13:59:18;20.60;99.90
21047;DHT22;10682;50.874;3.656;2022-09-09T14:02:08;20.70;99.90
21047;DHT22;10682;50.874;3.656;2022-09-09T14:04:35;20.70;99.90
21047;DHT22;10682;50.874;3.656;2022-09-09T14:07:02;20.80;99.90
21047;DHT22;10682;50.874;3.656;2022-09-09T14:09:30;20.70;99.90
21047;DHT22;10682;50.874;3.656;2022-09-09T14:11:57;20.40;99.90
21047;DHT22;10682;50.874;3.656;2022-09-09T14:14:24;20.10;99.90
21047;DHT22;10682;50.874;3.656;2022-09-09T14:16:52;19.90;99.90
21047;DHT22;10682;50.874;3.656;2022-09-09T14:19:19;19.80;99.90
21047;DHT22;10682;50.874;3.656;2022-09-09T14:21:46;19.70;99.90
21047;DHT22;10682;50.874;3.656;2022-09-09T14:24:13;19.70;99.90
21047;DHT22;10682;50.874;3.656;2022-09-09T14:26:40;19.60;99.90
21047;DHT22;10682;50.874;3.656;2022-09-09T14:29:07;19.60;99.90
21047;DHT22;10682;50.874;3.656;2022-09-09T14:31:34;19.50;99.90
21047;DHT22;10682;50.874;3.656;2022-09-09T14:34:01;19.50;99.90
21047;DHT22;10682;50.874;3.656;2022-09-09T14:36:28;19.30;99.90
21047;DHT22;10682;50.874;3.656;2022-09-09T14:38:55;19.30;99.90
21047;DHT22;10682;50.874;3.656;2022-09-09T14:41:22;19.30;99.90
21047;DHT22;10682;50.874;3.656;2022-09-09T14:43:49;19.30;99.90
21047;DHT22;10682;50.874;3.656;2022-09-09T14:46:19;19.30;99.90
21047;DHT22;10682;50.874;3.656;2022-09-09T14:48:46;19.40;99.90
21047;DHT22;10682;50.874;3.656;2022-09-09T14:51:20;19.50;99.90
21047;DHT22;10682;50.874;3.656;2022-09-09T14:53:52;19.60;99.90
21047;DHT22;10682;50.874;3.656;2022-09-09T14:56:24;19.70;99.90
21047;DHT22;10682;50.874;3.656;2022-09-09T14:58:57;19.70;99.90
21047;DHT22;10682;50.874;3.656;2022-09-09T15:01:27;19.60;99.90
21047;DHT22;10682;50.874;3.656;2022-09-09T15:03:59;19.50;99.90
21047;DHT22;10682;50.874;3.656;2022-09-09T15:06:30;19.50;99.90
21047;DHT22;10682;50.874;3.656;2022-09-09T15:09:00;19.40;99.90
21047;DHT22;10682;50.874;3.656;2022-09-09T15:11:29;19.30;99.90
21047;DHT22;10682;50.874;3.656;2022-09-09T15:13:58;19.30;99.90
21047;DHT22;10682;50.874;3.656;2022-09-09T15:16:27;19.30;99.90
21047;DHT22;10682;50.874;3.656;2022-09-09T15:18:56;19.10;99.90
21047;DHT22;10682;50.874;3.656;2022-09-09T15:21:32;18.90;99.90
21047;DHT22;10682;50.874;3.656;2022-09-09T15:24:00;18.80;99.90
21047;DHT22;10682;50.874;3.656;2022-09-09T15:26:28;18.60;99.90
21047;DHT22;10682;50.874;3.656;2022-09-09T15:28:55;18.60;99.90
21047;DHT22;10682;50.874;3.656;2022-09-09T15:31:28;18.50;99.90
21047;DHT22;10682;50.874;3.656;2022-09-09T15:34:00;18.50;99.90
21047;DHT22;10682;50.874;3.656;2022-09-09T15:36:37;18.40;99.90
21047;DHT22;10682;50.874;3.656;2022-09-09T15:39:08;18.30;99.90
21047;DHT22;10682;50.874;3.656;2022-09-09T15:41:39;18.20;99.90
21047;DHT22;10682;50.874;3.656;2022-09-09T15:44:06;18.10;99.90
21047;DHT22;10682;50.874;3.656;2022-09-09T15:46:36;18.00;99.90
21047;DHT22;10682;50.874;3.656;2022-09-09T15:49:18;17.70;99.90
21047;DHT22;10682;50.874;3.656;2022-09-09T15:51:59;17.60;99.90
21047;DHT22;10682;50.874;3.656;2022-09-09T15:54:36;17.70;99.90
21047;DHT22;10682;50.874;3.656;2022-09-09T15:57:07;17.90;99.90
21047;DHT22;10682;50.874;3.656;2022-09-09T15:59:36;18.10;99.90
21047;DHT22;10682;50.874;3.656;2022-09-09T16:02:04;18.20;99.90
21047;DHT22;10682;50.874;3.656;2022-09-09T16:04:31;18.20;99.90
21047;DHT22;10682;50.874;3.656;2022-09-09T16:07:04;18.30;99.90
21047;DHT22;10682;50.874;3.656;2022-09-09T16:09:33;18.50;99.90
21047;DHT22;10682;50.874;3.656;2022-09-09T16:12:03;18.60;99.90
21047;DHT22;10682;50.874;3.656;2022-09-09T16:14:34;18.70;99.90
21047;DHT22;10682;50.874;3.656;2022-09-09T16:17:03;18.70;99.90
21047;DHT22;10682;50.874;3.656;2022-09-09T16:19:32;18.70;99.90
21047;DHT22;10682;50.874;3.656;2022-09-09T16:22:01;18.70;99.90
21047;DHT22;10682;50.874;3.656;2022-09-09T16:24:28;18.70;99.90
21047;DHT22;10682;50.874;3.656;2022-09-09T16:26:55;18.60;99.90
21047;DHT22;10682;50.874;3.656;2022-09-09T16:29:23;18.60;99.90
21047;DHT22;10682;50.874;3.656;2022-09-09T16:31:54;18.50;99.90
21047;DHT22;10682;50.874;3.656;2022-09-09T16:34:28;18.40;99.90
21047;DHT22;10682;50.874;3.656;2022-09-09T16:36:55;18.20;99.90
21047;DHT22;10682;50.874;3.656;2022-09-09T16:39:22;18.10;99.90
21047;DHT22;10682;50.874;3.656;2022-09-09T16:41:49;18.10;99.90
21047;DHT22;10682;50.874;3.656;2022-09-09T16:44:17;18.10;99.90
21047;DHT22;10682;50.874;3.656;2022-09-09T16:46:47;18.20;99.90
21047;DHT22;10682;50.874;3.656;2022-09-09T16:49:15;18.20;99.90
21047;DHT22;10682;50.874;3.656;2022-09-09T16:51:48;18.10;99.90
21047;DHT22;10682;50.874;3.656;2022-09-09T16:54:17;18.10;99.90
21047;DHT22;10682;50.874;3.656;2022-09-09T16:56:46;18.10;99.90
21047;DHT22;10682;50.874;3.656;2022-09-09T16:59:19;18.10;99.90
21047;DHT22;10682;50.874;3.656;2022-09-09T17:01:49;18.10;99.90
21047;DHT22;10682;50.874;3.656;2022-09-09T17:04:19;18.10;99.90
21047;DHT22;10682;50.874;3.656;2022-09-09T17:06:53;18.00;99.90
21047;DHT22;10682;50.874;3.656;2022-09-09T17:09:22;18.00;99.90
21047;DHT22;10682;50.874;3.656;2022-09-09T17:11:50;18.00;99.90
21047;DHT22;10682;50.874;3.656;2022-09-09T17:14:20;18.00;99.90
21047;DHT22;10682;50.874;3.656;2022-09-09T17:16:48;17.90;99.90
21047;DHT22;10682;50.874;3.656;2022-09-09T17:19:15;17.80;99.90
21047;DHT22;10682;50.874;3.656;2022-09-09T17:21:44;17.80;99.90
21047;DHT22;10682;50.874;3.656;2022-09-09T17:24:34;17.80;99.90
21047;DHT22;10682;50.874;3.656;2022-09-09T17:27:01;17.70;99.90
21047;DHT22;10682;50.874;3.656;2022-09-09T17:29:29;17.70;99.90
21047;DHT22;10682;50.874;3.656;2022-09-09T17:31:56;17.60;99.90
21047;DHT22;10682;50.874;3.656;2022-09-09T17:34:24;17.60;99.90
21047;DHT22;10682;50.874;3.656;2022-09-09T17:36:51;17.60;99.90
21047;DHT22;10682;50.874;3.656;2022-09-09T17:39:18;17.60;99.90
21047;DHT22;10682;50.874;3.656;2022-09-09T17:41:45;17.60;99.90
21047;DHT22;10682;50.874;3.656;2022-09-09T17:44:12;17.60;99.90
21047;DHT22;10682;50.874;3.656;2022-09-09T17:46:41;17.60;99.90
21047;DHT22;10682;50.874;3.656;2022-09-09T17:49:11;17.60;99.90
21047;DHT22;10682;50.874;3.656;2022-09-09T17:51:40;17.50;99.90
21047;DHT22;10682;50.874;3.656;2022-09-09T17:54:19;17.50;99.90
21047;DHT22;10682;50.874;3.656;2022-09-09T17:56:47;17.40;99.90
21047;DHT22;10682;50.874;3.656;2022-09-09T17:59:16;17.40;99.90
21047;DHT22;10682;50.874;3.656;2022-09-09T18:01:45;17.40;99.90
21047;DHT22;10682;50.874;3.656;2022-09-09T18:04:15;17.40;99.90
21047;DHT22;10682;50.874;3.656;2022-09-09T18:06:45;17.30;99.90
21047;DHT22;10682;50.874;3.656;2022-09-09T18:09:22;17.30;99.90
21047;DHT22;10682;50.874;3.656;2022-09-09T18:11:54;17.30;99.90
21047;DHT22;10682;50.874;3.656;2022-09-09T18:14:28;17.30;99.90
21047;DHT22;10682;50.874;3.656;2022-09-09T18:16:57;17.30;99.90
21047;DHT22;10682;50.874;3.656;2022-09-09T18:19:27;17.30;99.90
21047;DHT22;10682;50.874;3.656;2022-09-09T18:21:56;17.30;99.90
21047;DHT22;10682;50.874;3.656;2022-09-09T18:24:28;17.20;99.90
21047;DHT22;10682;50.874;3.656;2022-09-09T18:26:56;17.20;99.90
21047;DHT22;10682;50.874;3.656;2022-09-09T18:29:23;17.20;99.90